| time (UTC) | temp C | wind direction | speed KPH | gust KPH | rain 1hr cm | rain 24hr cm | rain mn cm | humidity % | barometer mb |
| 20260503211944 | 27 | 262 | 3.2 | 4.8 | 0.00 | 0.00 | 0.00 | 42 | 1011.6 |
| 20260503211441 | 27 | 280 | 1.6 | 1.6 | 0.00 | 0.00 | 0.00 | 42 | 1012.0 |
| 20260503210936 | 27 | 259 | 1.6 | 3.2 | 0.00 | 0.00 | 0.00 | 41 | 1011.6 |
| 20260503210433 | 26 | 279 | 1.6 | 1.6 | 0.00 | 0.00 | 0.00 | 42 | 1011.6 |
| 20260503205928 | 26 | 304 | 3.2 | 3.2 | 0.00 | 0.00 | 0.00 | 43 | 1011.6 |
| 20260503205425 | 26 | 269 | 4.8 | 6.4 | 0.00 | 0.00 | 0.00 | 43 | 1012.0 |
| 20260503204921 | 26 | 296 | 8.0 | 9.7 | 0.00 | 0.00 | 0.00 | 45 | 1012.0 |
| 20260503204419 | 27 | 307 | 3.2 | 3.2 | 0.00 | 0.00 | 0.00 | 44 | 1012.0 |
| 20260503203916 | 26 | 47 | 3.2 | 4.8 | 0.00 | 0.00 | 0.00 | 46 | 1012.0 |
| 20260503203413 | 26 | 238 | 1.6 | 3.2 | 0.00 | 0.00 | 0.00 | 45 | 1012.0 |
| 20260503202910 | 26 | 220 | 4.8 | 6.4 | 0.00 | 0.00 | 0.00 | 46 | 1012.4 |
| 20260503202408 | 25 | 293 | 4.8 | 6.4 | 0.00 | 0.00 | 0.00 | 46 | 1012.4 |
| 20260503201906 | 26 | 239 | 1.6 | 1.6 | 0.00 | 0.00 | 0.00 | 44 | 1012.0 |
| 20260503201403 | 26 | 270 | 4.8 | 6.4 | 0.00 | 0.00 | 0.00 | 45 | 1012.4 |
| 20260503200901 | 25 | 238 | 8.0 | 11.3 | 0.00 | 0.00 | 0.00 | 45 | 1012.4 |
| 20260503200356 | 25 | 333 | 4.8 | 6.4 | 0.00 | 0.00 | 0.00 | 46 | 1012.7 |
| 20260503195854 | 25 | 294 | 4.8 | 6.4 | 0.00 | 0.00 | 0.00 | 48 | 1012.4 |
| 20260503195350 | 26 | 230 | 1.6 | 3.2 | 0.00 | 0.00 | 0.00 | 46 | 1012.4 |
| 20260503194847 | 25 | 238 | 1.6 | 1.6 | 0.00 | 0.00 | 0.00 | 51 | 1012.7 |
| 20260503194343 | 25 | 248 | 3.2 | 4.8 | 0.00 | 0.00 | 0.00 | 49 | 1012.7 |
| 20260503193840 | 25 | 259 | 1.6 | 1.6 | 0.00 | 0.00 | 0.00 | 47 | 1012.7 |
| 20260503193335 | 25 | 169 | 1.6 | 1.6 | 0.00 | 0.00 | 0.00 | 48 | 1013.0 |
| 20260503192831 | 24 | 319 | 3.2 | 3.2 | 0.00 | 0.00 | 0.00 | 48 | 1013.0 |
| 20260503192327 | 23 | 4 | 6.4 | 6.4 | 0.00 | 0.00 | 0.00 | 48 | 1013.0 |
| 20260503191824 | 24 | 90 | 1.6 | 3.2 | 0.00 | 0.00 | 0.00 | 49 | 1013.0 |
| 20260503191321 | 24 | 206 | 3.2 | 4.8 | 0.00 | 0.00 | 0.00 | 47 | 1013.0 |
| 20260503190817 | 25 | 323 | 4.8 | 4.8 | 0.00 | 0.00 | 0.00 | 47 | 1013.0 |
| 20260503190315 | 24 | 214 | 0.0 | 1.6 | 0.00 | 0.00 | 0.00 | 48 | 1013.0 |
| 20260503185812 | 23 | 251 | 3.2 | 3.2 | 0.00 | 0.00 | 0.00 | 51 | 1013.4 |
| 20260503185308 | 25 | 238 | 3.2 | 3.2 | 0.00 | 0.00 | 0.00 | 51 | 1013.4 |
| 20260503184808 | 24 | 297 | 3.2 | 3.2 | 0.00 | 0.00 | 0.00 | 52 | 1013.4 |
| 20260503184304 | 24 | 220 | 1.6 | 1.6 | 0.00 | 0.00 | 0.00 | 54 | 1013.4 |
| 20260503183800 | 23 | 255 | 1.6 | 1.6 | 0.00 | 0.00 | 0.00 | 54 | 1013.4 |
| 20260503183258 | 22 | 262 | 3.2 | 3.2 | 0.00 | 0.00 | 0.00 | 56 | 1013.4 |
| 20260503182755 | 22 | 180 | 1.6 | 1.6 | 0.00 | 0.00 | 0.00 | 57 | 1013.4 |
| 20260503182254 | 23 | 161 | 0.0 | 0.0 | 0.00 | 0.00 | 0.00 | 55 | 1013.7 |
| 20260503181750 | 22 | 320 | 3.2 | 6.4 | 0.00 | 0.00 | 0.00 | 60 | 1013.4 |
| 20260503181247 | 21 | 166 | 0.0 | 0.0 | 0.00 | 0.00 | 0.00 | 62 | 1013.7 |
| 20260503180743 | 22 | 300 | 6.4 | 6.4 | 0.00 | 0.00 | 0.00 | 56 | 1013.7 |
| 20260503180242 | 21 | 179 | 3.2 | 3.2 | 0.00 | 0.00 | 0.00 | 62 | 1013.7 |
| 20260503175738 | 21 | 163 | 4.8 | 6.4 | 0.00 | 0.00 | 0.00 | 63 | 1014.1 |
| 20260503175236 | 21 | 187 | 6.4 | 6.4 | 0.00 | 0.00 | 0.00 | 64 | 1013.7 |
| 20260503174732 | 21 | 51 | 1.6 | 1.6 | 0.00 | 0.00 | 0.00 | 65 | 1013.7 |
| 20260503174231 | 21 | 186 | 3.2 | 3.2 | 0.00 | 0.00 | 0.00 | 65 | 1014.1 |
| 20260503173730 | 20 | 344 | 1.6 | 3.2 | 0.00 | 0.00 | 0.00 | 61 | 1014.1 |
| 20260503173227 | 20 | 225 | 1.6 | 1.6 | 0.00 | 0.00 | 0.00 | 60 | 1014.1 |
| 20260503172724 | 20 | 286 | 1.6 | 3.2 | 0.00 | 0.00 | 0.00 | 67 | 1014.1 |
| 20260503172221 | 20 | 220 | 1.6 | 1.6 | 0.00 | 0.00 | 0.00 | 68 | 1014.1 |
| 20260503171717 | 20 | 222 | 1.6 | 1.6 | 0.00 | 0.00 | 0.00 | 69 | 1014.1 |
| 20260503171215 | 19 | 129 | 0.0 | 0.0 | 0.00 | 0.00 | 0.00 | 67 | 1014.1 |
| 20260503170711 | 18 | 138 | 0.0 | 1.6 | 0.00 | 0.00 | 0.00 | 72 | 1014.1 |
| 20260503170208 | 18 | 229 | 0.0 | 1.6 | 0.00 | 0.00 | 0.00 | 74 | 1014.1 |
| 20260503160130 | 15 | 184 | 0.0 | 1.6 | 0.00 | 0.00 | 0.00 | 83 | 1014.1 |
| 20260503150600 | 13 | 197 | 0.0 | 0.0 | 0.00 | 0.00 | 0.00 | 90 | 1014.4 |
| 20260503130949 | 10 | 220 | 0.0 | 0.0 | 0.00 | 0.00 | 0.00 | 99 | 1014.1 |
| 20260503130447 | 10 | 221 | 0.0 | 0.0 | 0.00 | 0.00 | 0.00 | 99 | 1014.1 |
| 20260503110338 | 11 | 211 | 0.0 | 0.0 | 0.00 | 0.00 | 0.00 | 94 | 1014.4 |
| 20260503090224 | 12 | 213 | 0.0 | 0.0 | 0.00 | 0.00 | 0.00 | 82 | 1014.4 |
| 20260503081151 | 13 | 213 | 0.0 | 0.0 | 0.00 | 0.00 | 0.00 | 78 | 1014.4 |
| 20260503080646 | 13 | 213 | 0.0 | 0.0 | 0.00 | 0.00 | 0.00 | 79 | 1014.4 |
| 20260503080144 | 13 | 213 | 0.0 | 0.0 | 0.00 | 0.00 | 0.00 | 79 | 1014.4 |
| 20260503072620 | 13 | 194 | 0.0 | 0.0 | 0.00 | 0.00 | 0.00 | 78 | 1014.4 |
| 20260503072117 | 13 | 194 | 0.0 | 0.0 | 0.00 | 0.00 | 0.00 | 76 | 1014.4 |
| 20260503071614 | 13 | 194 | 0.0 | 0.0 | 0.00 | 0.00 | 0.00 | 75 | 1014.1 |
| 20260503071111 | 13 | 194 | 0.0 | 0.0 | 0.00 | 0.00 | 0.00 | 76 | 1014.7 |
| 20260503070608 | 13 | 194 | 0.0 | 1.6 | 0.00 | 0.00 | 0.00 | 76 | 1014.4 |
| 20260503070106 | 13 | 196 | 0.0 | 1.6 | 0.00 | 0.00 | 0.00 | 76 | 1014.1 |
| 20260503055026 | 15 | 207 | 0.0 | 0.0 | 0.00 | 0.00 | 0.00 | 67 | 1014.1 |
| 20260503054522 | 15 | 207 | 0.0 | 0.0 | 0.00 | 0.00 | 0.00 | 66 | 1014.1 |
| 20260503054020 | 15 | 207 | 0.0 | 0.0 | 0.00 | 0.00 | 0.00 | 66 | 1014.4 |
| 20260503053518 | 15 | 207 | 0.0 | 0.0 | 0.00 | 0.00 | 0.00 | 65 | 1014.4 |
| 20260503053015 | 16 | 193 | 0.0 | 1.6 | 0.00 | 0.00 | 0.00 | 68 | 1014.4 |
| 20260503052512 | 16 | 224 | 0.0 | 0.0 | 0.00 | 0.00 | 0.00 | 63 | 1014.4 |
| 20260503052008 | 16 | 225 | 0.0 | 0.0 | 0.00 | 0.00 | 0.00 | 63 | 1014.4 |
| 20260503051503 | 16 | 226 | 0.0 | 0.0 | 0.00 | 0.00 | 0.00 | 63 | 1014.4 |
| 20260503051001 | 16 | 196 | 0.0 | 0.0 | 0.00 | 0.00 | 0.00 | 63 | 1014.4 |
| 20260503050457 | 16 | 229 | 0.0 | 0.0 | 0.00 | 0.00 | 0.00 | 62 | 1014.4 |
| 20260503045955 | 16 | 256 | 1.6 | 1.6 | 0.00 | 0.00 | 0.00 | 62 | 1014.4 |
| 20260503045452 | 16 | 218 | 0.0 | 0.0 | 0.00 | 0.00 | 0.00 | 64 | 1014.4 |
| 20260503044949 | 16 | 223 | 0.0 | 0.0 | 0.00 | 0.00 | 0.00 | 63 | 1014.4 |
| 20260503044445 | 16 | 223 | 0.0 | 0.0 | 0.00 | 0.00 | 0.00 | 65 | 1014.1 |
| 20260503043943 | 16 | 218 | 0.0 | 0.0 | 0.00 | 0.00 | 0.00 | 64 | 1014.1 |
| 20260503043439 | 16 | 217 | 0.0 | 0.0 | 0.00 | 0.00 | 0.00 | 63 | 1014.1 |
| 20260503042935 | 16 | 220 | 0.0 | 0.0 | 0.00 | 0.00 | 0.00 | 64 | 1014.1 |
| 20260503042432 | 16 | 220 | 0.0 | 0.0 | 0.00 | 0.00 | 0.00 | 63 | 1014.1 |
| 20260503041929 | 17 | 220 | 0.0 | 0.0 | 0.00 | 0.00 | 0.00 | 64 | 1014.1 |
| 20260503041426 | 17 | 199 | 0.0 | 0.0 | 0.00 | 0.00 | 0.00 | 62 | 1014.1 |
| 20260503040923 | 17 | 199 | 0.0 | 0.0 | 0.00 | 0.00 | 0.00 | 63 | 1014.1 |
| 20260503040420 | 17 | 211 | 0.0 | 0.0 | 0.00 | 0.00 | 0.00 | 60 | 1013.7 |
| 20260503035918 | 17 | 203 | 0.0 | 0.0 | 0.00 | 0.00 | 0.00 | 60 | 1014.1 |
| 20260503035414 | 18 | 210 | 0.0 | 0.0 | 0.00 | 0.00 | 0.00 | 60 | 1013.7 |
| 20260503034912 | 18 | 311 | 1.6 | 3.2 | 0.00 | 0.00 | 0.00 | 56 | 1013.7 |
| 20260503034409 | 18 | 232 | 0.0 | 0.0 | 0.00 | 0.00 | 0.00 | 59 | 1013.4 |
| 20260503033906 | 18 | 214 | 0.0 | 0.0 | 0.00 | 0.00 | 0.00 | 60 | 1013.4 |
| 20260503033404 | 18 | 192 | 0.0 | 0.0 | 0.00 | 0.00 | 0.00 | 60 | 1013.4 |
| 20260503032902 | 18 | 224 | 1.6 | 1.6 | 0.00 | 0.00 | 0.00 | 58 | 1013.0 |
| 20260503032400 | 19 | 217 | 0.0 | 1.6 | 0.00 | 0.00 | 0.00 | 57 | 1013.0 |
| 20260503031857 | 19 | 337 | 3.2 | 3.2 | 0.00 | 0.00 | 0.00 | 57 | 1013.0 |
| 20260503031349 | 20 | 206 | 0.0 | 1.6 | 0.00 | 0.00 | 0.00 | 58 | 1013.0 |
| 20260503030845 | 20 | 359 | 3.2 | 4.8 | 0.00 | 0.00 | 0.00 | 56 | 1013.0 |
| 20260503030342 | 20 | 253 | 1.6 | 3.2 | 0.00 | 0.00 | 0.00 | 56 | 1013.0 |
| 20260503025838 | 20 | 233 | 0.0 | 0.0 | 0.00 | 0.00 | 0.00 | 59 | 1013.0 |
| 20260503025336 | 20 | 239 | 0.0 | 0.0 | 0.00 | 0.00 | 0.00 | 60 | 1012.7 |
| 20260503024833 | 20 | 214 | 0.0 | 0.0 | 0.00 | 0.00 | 0.00 | 62 | 1013.0 |
| 20260503024330 | 20 | 225 | 0.0 | 0.0 | 0.00 | 0.00 | 0.00 | 58 | 1013.0 |
| 20260503023826 | 20 | 305 | 3.2 | 4.8 | 0.00 | 0.00 | 0.00 | 57 | 1013.0 |
| 20260503023324 | 20 | 333 | 3.2 | 3.2 | 0.00 | 0.00 | 0.00 | 57 | 1012.7 |
| 20260503022820 | 21 | 268 | 1.6 | 1.6 | 0.00 | 0.00 | 0.00 | 58 | 1013.0 |
| 20260503022320 | 21 | 351 | 3.2 | 3.2 | 0.00 | 0.00 | 0.00 | 56 | 1012.7 |
| 20260503021817 | 21 | 355 | 6.4 | 6.4 | 0.00 | 0.00 | 0.00 | 56 | 1013.0 |
| 20260503021313 | 21 | 48 | 3.2 | 3.2 | 0.00 | 0.00 | 0.00 | 56 | 1013.0 |
| 20260503020811 | 21 | 327 | 6.4 | 9.7 | 0.00 | 0.00 | 0.00 | 56 | 1013.0 |
| 20260503020309 | 21 | 269 | 3.2 | 4.8 | 0.00 | 0.00 | 0.00 | 59 | 1013.0 |
| 20260503015804 | 21 | 323 | 4.8 | 6.4 | 0.00 | 0.00 | 0.00 | 56 | 1013.0 |
| 20260503015305 | 22 | 300 | 9.7 | 11.3 | 0.00 | 0.00 | 0.00 | 56 | 1013.0 |
| 20260503014757 | 22 | 316 | 3.2 | 3.2 | 0.00 | 0.00 | 0.00 | 57 | 1012.7 |
| 20260503014255 | 22 | 314 | 8.0 | 9.7 | 0.00 | 0.00 | 0.00 | 56 | 1012.7 |
| 20260503013752 | 22 | 1 | 6.4 | 12.9 | 0.00 | 0.00 | 0.00 | 57 | 1012.7 |
| 20260503013250 | 22 | 302 | 3.2 | 4.8 | 0.00 | 0.00 | 0.00 | 58 | 1013.0 |
| 20260503012747 | 22 | 198 | 0.0 | 1.6 | 0.00 | 0.00 | 0.00 | 59 | 1012.7 |
| 20260503012244 | 22 | 341 | 8.0 | 11.3 | 0.00 | 0.00 | 0.00 | 57 | 1013.0 |
| 20260503011741 | 22 | 318 | 3.2 | 3.2 | 0.00 | 0.00 | 0.00 | 56 | 1012.7 |
| 20260503011238 | 22 | 325 | 6.4 | 9.7 | 0.00 | 0.00 | 0.00 | 56 | 1013.0 |
| 20260503010734 | 22 | 343 | 9.7 | 11.3 | 0.00 | 0.00 | 0.00 | 57 | 1013.0 |
| 20260503010231 | 22 | 280 | 3.2 | 3.2 | 0.00 | 0.00 | 0.00 | 60 | 1013.0 |
| 20260503005728 | 22 | 358 | 6.4 | 11.3 | 0.00 | 0.00 | 0.00 | 57 | 1013.0 |
| 20260503005226 | 23 | 43 | 11.3 | 14.5 | 0.00 | 0.00 | 0.00 | 57 | 1013.0 |
| 20260503004721 | 23 | 354 | 6.4 | 6.4 | 0.00 | 0.00 | 0.00 | 56 | 1013.0 |
| 20260503004220 | 23 | 12 | 4.8 | 4.8 | 0.00 | 0.00 | 0.00 | 56 | 1013.0 |
| 20260503003717 | 23 | 195 | 0.0 | 0.0 | 0.00 | 0.00 | 0.00 | 57 | 1013.0 |
| 20260503003214 | 23 | 245 | 1.6 | 1.6 | 0.00 | 0.00 | 0.00 | 57 | 1013.0 |
| 20260503002710 | 23 | 89 | 1.6 | 1.6 | 0.00 | 0.00 | 0.00 | 58 | 1013.4 |
| 20260503002207 | 23 | 312 | 1.6 | 1.6 | 0.00 | 0.00 | 0.00 | 58 | 1013.0 |
| 20260503001703 | 23 | 22 | 6.4 | 6.4 | 0.00 | 0.00 | 0.00 | 57 | 1013.4 |
| 20260503001200 | 23 | 338 | 3.2 | 4.8 | 0.00 | 0.00 | 0.00 | 57 | 1013.0 |
| 20260503000658 | 23 | 358 | 6.4 | 9.7 | 0.00 | 0.00 | 0.00 | 57 | 1013.0 |
| 20260503000155 | 23 | 220 | 1.6 | 4.8 | 0.00 | 0.00 | 0.00 | 58 | 1013.4 |
| 20260502235651 | 23 | 36 | 6.4 | 9.7 | 0.00 | 0.00 | 0.00 | 56 | 1013.0 |
| 20260502235150 | 23 | 322 | 3.2 | 3.2 | 0.00 | 0.00 | 0.00 | 56 | 1013.0 |
| 20260502234645 | 23 | 46 | 3.2 | 4.8 | 0.00 | 0.00 | 0.00 | 57 | 1013.0 |
| 20260502234143 | 24 | 72 | 1.6 | 1.6 | 0.00 | 0.00 | 0.00 | 55 | 1013.4 |
| 20260502233638 | 23 | 15 | 3.2 | 4.8 | 0.00 | 0.00 | 0.00 | 55 | 1013.4 |
| 20260502233130 | 23 | 206 | 3.2 | 4.8 | 0.00 | 0.00 | 0.00 | 56 | 1013.4 |
| 20260502232626 | 23 | 225 | 0.0 | 0.0 | 0.00 | 0.00 | 0.00 | 56 | 1013.4 |
| 20260502232124 | 23 | 173 | 3.2 | 4.8 | 0.00 | 0.00 | 0.00 | 58 | 1013.7 |
| 20260502231620 | 23 | 346 | 6.4 | 6.4 | 0.00 | 0.00 | 0.00 | 57 | 1013.7 |
| 20260502231118 | 22 | 335 | 8.0 | 11.3 | 0.00 | 0.00 | 0.00 | 58 | 1013.7 |
| 20260502230616 | 22 | 286 | 6.4 | 6.4 | 0.00 | 0.00 | 0.00 | 59 | 1013.7 |
| 20260502230114 | 23 | 13 | 11.3 | 14.5 | 0.00 | 0.00 | 0.00 | 58 | 1013.7 |
| 20260502225609 | 23 | 207 | 3.2 | 4.8 | 0.00 | 0.00 | 0.00 | 58 | 1014.1 |
| 20260502225107 | 22 | 195 | 0.0 | 1.6 | 0.00 | 0.00 | 0.00 | 59 | 1014.1 |
| 20260502224603 | 22 | 18 | 4.8 | 4.8 | 0.00 | 0.00 | 0.00 | 61 | 1014.1 |
| 20260502224100 | 23 | 344 | 9.7 | 12.9 | 0.00 | 0.00 | 0.00 | 58 | 1014.1 |
| 20260502223557 | 22 | 346 | 1.6 | 4.8 | 0.00 | 0.00 | 0.00 | 60 | 1014.1 |
| 20260502223056 | 22 | 12 | 6.4 | 11.3 | 0.00 | 0.00 | 0.00 | 60 | 1014.4 |
| 20260502222553 | 23 | 252 | 6.4 | 9.7 | 0.00 | 0.00 | 0.00 | 58 | 1014.4 |
| 20260502222049 | 22 | 292 | 6.4 | 9.7 | 0.00 | 0.00 | 0.00 | 59 | 1014.1 |
| 20260502221545 | 22 | 350 | 6.4 | 6.4 | 0.00 | 0.00 | 0.00 | 59 | 1014.4 |
| 20260502221042 | 22 | 302 | 4.8 | 6.4 | 0.00 | 0.00 | 0.00 | 60 | 1014.4 |
| 20260502220538 | 22 | 29 | 9.7 | 12.9 | 0.00 | 0.00 | 0.00 | 59 | 1014.7 |
| 20260502220035 | 22 | 37 | 6.4 | 6.4 | 0.00 | 0.00 | 0.00 | 61 | 1014.4 |
| 20260502215532 | 22 | 350 | 9.7 | 12.9 | 0.00 | 0.00 | 0.00 | 60 | 1014.4 |
| 20260502215029 | 22 | 290 | 4.8 | 6.4 | 0.00 | 0.00 | 0.00 | 62 | 1014.7 |
| 20260502214526 | 22 | 306 | 3.2 | 4.8 | 0.00 | 0.00 | 0.00 | 59 | 1014.7 |
| 20260502214023 | 22 | 270 | 3.2 | 4.8 | 0.00 | 0.00 | 0.00 | 60 | 1014.7 |
| 20260502213520 | 22 | 212 | 0.0 | 0.0 | 0.00 | 0.00 | 0.00 | 63 | 1014.7 |
| 20260502213018 | 21 | 318 | 8.0 | 12.9 | 0.00 | 0.00 | 0.00 | 62 | 1014.7 |
| 20260502212516 | 21 | 343 | 4.8 | 4.8 | 0.00 | 0.00 | 0.00 | 63 | 1014.7 |